sensor_id;sensor_type;location;lat;lon;timestamp;temperature;humidity
16040;DHT22;8124;48.634;8.120;2023-03-01T00:04:58;2.50;99.90
16040;DHT22;8124;48.634;8.120;2023-03-01T00:10:00;2.40;99.90
16040;DHT22;8124;48.634;8.120;2023-03-01T00:15:06;2.60;99.90
16040;DHT22;8124;48.634;8.120;2023-03-01T00:20:10;2.60;99.90
16040;DHT22;8124;48.634;8.120;2023-03-01T00:25:13;2.60;99.90
16040;DHT22;8124;48.634;8.120;2023-03-01T00:30:18;2.60;99.90
16040;DHT22;8124;48.634;8.120;2023-03-01T00:35:21;2.50;99.90
16040;DHT22;8124;48.634;8.120;2023-03-01T00:40:24;2.50;99.90
16040;DHT22;8124;48.634;8.120;2023-03-01T00:45:29;2.40;99.90
16040;DHT22;8124;48.634;8.120;2023-03-01T00:50:32;2.40;99.90
16040;DHT22;8124;48.634;8.120;2023-03-01T00:55:36;2.40;99.90
16040;DHT22;8124;48.634;8.120;2023-03-01T01:00:41;2.50;99.90
16040;DHT22;8124;48.634;8.120;2023-03-01T01:05:44;2.30;99.90
16040;DHT22;8124;48.634;8.120;2023-03-01T01:10:47;2.10;99.90
16040;DHT22;8124;48.634;8.120;2023-03-01T01:15:51;2.10;99.90
16040;DHT22;8124;48.634;8.120;2023-03-01T01:20:54;2.00;99.90
16040;DHT22;8124;48.634;8.120;2023-03-01T01:25:57;2.10;99.90
16040;DHT22;8124;48.634;8.120;2023-03-01T01:31:04;2.00;99.90
16040;DHT22;8124;48.634;8.120;2023-03-01T01:36:08;1.70;99.90
16040;DHT22;8124;48.634;8.120;2023-03-01T01:41:12;1.60;99.90
16040;DHT22;8124;48.634;8.120;2023-03-01T01:46:21;1.40;99.90
16040;DHT22;8124;48.634;8.120;2023-03-01T01:51:29;1.40;99.90
16040;DHT22;8124;48.634;8.120;2023-03-01T01:56:40;1.50;99.90
16040;DHT22;8124;48.634;8.120;2023-03-01T02:01:46;1.50;99.90
16040;DHT22;8124;48.634;8.120;2023-03-01T02:06:54;1.60;99.90
16040;DHT22;8124;48.634;8.120;2023-03-01T02:11:58;1.60;99.90
16040;DHT22;8124;48.634;8.120;2023-03-01T02:17:03;1.60;99.90
16040;DHT22;8124;48.634;8.120;2023-03-01T02:22:13;1.30;99.90
16040;DHT22;8124;48.634;8.120;2023-03-01T02:27:23;1.00;99.90
16040;DHT22;8124;48.634;8.120;2023-03-01T02:32:31;1.10;99.90
16040;DHT22;8124;48.634;8.120;2023-03-01T02:37:35;1.20;99.90
16040;DHT22;8124;48.634;8.120;2023-03-01T02:42:45;0.90;99.90
16040;DHT22;8124;48.634;8.120;2023-03-01T02:47:53;1.10;99.90
16040;DHT22;8124;48.634;8.120;2023-03-01T02:53:01;1.10;99.90
16040;DHT22;8124;48.634;8.120;2023-03-01T02:58:05;1.10;99.90
16040;DHT22;8124;48.634;8.120;2023-03-01T03:03:10;0.80;99.90
16040;DHT22;8124;48.634;8.120;2023-03-01T03:08:16;0.80;99.90
16040;DHT22;8124;48.634;8.120;2023-03-01T03:13:29;0.90;99.90
16040;DHT22;8124;48.634;8.120;2023-03-01T03:18:33;1.00;99.90
16040;DHT22;8124;48.634;8.120;2023-03-01T03:23:36;1.00;99.90
16040;DHT22;8124;48.634;8.120;2023-03-01T03:28:39;1.00;99.90
16040;DHT22;8124;48.634;8.120;2023-03-01T03:33:43;1.00;99.90
16040;DHT22;8124;48.634;8.120;2023-03-01T03:38:46;1.00;99.90
16040;DHT22;8124;48.634;8.120;2023-03-01T03:43:51;0.80;99.90
16040;DHT22;8124;48.634;8.120;2023-03-01T03:48:55;0.60;99.90
16040;DHT22;8124;48.634;8.120;2023-03-01T03:53:58;0.70;99.90
16040;DHT22;8124;48.634;8.120;2023-03-01T03:59:01;0.90;99.90
16040;DHT22;8124;48.634;8.120;2023-03-01T04:04:05;0.90;99.90
16040;DHT22;8124;48.634;8.120;2023-03-01T04:09:09;0.90;99.90
16040;DHT22;8124;48.634;8.120;2023-03-01T04:14:13;0.90;99.90
16040;DHT22;8124;48.634;8.120;2023-03-01T04:19:17;0.80;99.90
16040;DHT22;8124;48.634;8.120;2023-03-01T04:24:20;0.70;99.90
16040;DHT22;8124;48.634;8.120;2023-03-01T04:29:24;0.60;99.90
16040;DHT22;8124;48.634;8.120;2023-03-01T04:34:30;0.60;99.90
16040;DHT22;8124;48.634;8.120;2023-03-01T04:39:32;0.50;99.90
16040;DHT22;8124;48.634;8.120;2023-03-01T04:44:45;0.50;99.90
16040;DHT22;8124;48.634;8.120;2023-03-01T04:49:49;0.60;99.90
16040;DHT22;8124;48.634;8.120;2023-03-01T04:54:52;0.60;99.90
16040;DHT22;8124;48.634;8.120;2023-03-01T04:59:55;0.60;99.90
16040;DHT22;8124;48.634;8.120;2023-03-01T05:04:59;1.00;99.90
16040;DHT22;8124;48.634;8.120;2023-03-01T05:10:03;0.60;99.90
16040;DHT22;8124;48.634;8.120;2023-03-01T05:15:07;0.60;99.90
16040;DHT22;8124;48.634;8.120;2023-03-01T05:20:11;0.40;99.90
16040;DHT22;8124;48.634;8.120;2023-03-01T05:25:15;0.40;99.90
16040;DHT22;8124;48.634;8.120;2023-03-01T05:30:18;0.30;99.90
16040;DHT22;8124;48.634;8.120;2023-03-01T05:35:23;0.40;99.90
16040;DHT22;8124;48.634;8.120;2023-03-01T05:40:26;1.30;99.90
16040;DHT22;8124;48.634;8.120;2023-03-01T05:45:32;0.70;99.90
16040;DHT22;8124;48.634;8.120;2023-03-01T05:50:40;0.60;99.90
16040;DHT22;8124;48.634;8.120;2023-03-01T05:55:43;0.60;99.90
16040;DHT22;8124;48.634;8.120;2023-03-01T06:00:49;0.60;99.90
16040;DHT22;8124;48.634;8.120;2023-03-01T06:05:58;0.60;99.90
16040;DHT22;8124;48.634;8.120;2023-03-01T06:11:01;0.60;99.90
16040;DHT22;8124;48.634;8.120;2023-03-01T06:16:05;0.40;99.90
16040;DHT22;8124;48.634;8.120;2023-03-01T06:21:10;0.50;99.90
16040;DHT22;8124;48.634;8.120;2023-03-01T06:26:13;0.40;99.90
16040;DHT22;8124;48.634;8.120;2023-03-01T06:31:16;0.40;99.90
16040;DHT22;8124;48.634;8.120;2023-03-01T06:36:20;0.50;99.90
16040;DHT22;8124;48.634;8.120;2023-03-01T06:41:23;0.50;99.90
16040;DHT22;8124;48.634;8.120;2023-03-01T06:46:26;0.30;99.90
16040;DHT22;8124;48.634;8.120;2023-03-01T06:51:31;0.40;99.90
16040;DHT22;8124;48.634;8.120;2023-03-01T06:56:34;0.40;99.90
16040;DHT22;8124;48.634;8.120;2023-03-01T07:01:37;0.50;99.90
16040;DHT22;8124;48.634;8.120;2023-03-01T07:06:42;0.50;99.90
16040;DHT22;8124;48.634;8.120;2023-03-01T07:11:45;0.60;99.90
16040;DHT22;8124;48.634;8.120;2023-03-01T07:16:49;0.50;99.90
16040;DHT22;8124;48.634;8.120;2023-03-01T07:21:54;0.70;99.90
16040;DHT22;8124;48.634;8.120;2023-03-01T07:26:57;0.50;99.90
16040;DHT22;8124;48.634;8.120;2023-03-01T07:32:00;0.70;99.90
16040;DHT22;8124;48.634;8.120;2023-03-01T07:37:04;0.70;99.90
16040;DHT22;8124;48.634;8.120;2023-03-01T07:42:07;1.00;99.90
16040;DHT22;8124;48.634;8.120;2023-03-01T07:47:10;0.80;99.90
16040;DHT22;8124;48.634;8.120;2023-03-01T07:52:15;1.10;99.90
16040;DHT22;8124;48.634;8.120;2023-03-01T07:57:17;1.70;99.90
16040;DHT22;8124;48.634;8.120;2023-03-01T08:02:20;1.20;99.90
16040;DHT22;8124;48.634;8.120;2023-03-01T08:07:25;1.30;99.90
16040;DHT22;8124;48.634;8.120;2023-03-01T08:12:28;1.50;99.90
16040;DHT22;8124;48.634;8.120;2023-03-01T08:17:32;1.60;99.90
16040;DHT22;8124;48.634;8.120;2023-03-01T08:22:36;1.40;99.90
16040;DHT22;8124;48.634;8.120;2023-03-01T08:27:39;1.40;99.90
16040;DHT22;8124;48.634;8.120;2023-03-01T08:32:42;1.30;99.90
16040;DHT22;8124;48.634;8.120;2023-03-01T08:37:46;1.20;99.90
16040;DHT22;8124;48.634;8.120;2023-03-01T08:42:49;1.10;99.90
16040;DHT22;8124;48.634;8.120;2023-03-01T08:47:53;1.10;99.90
16040;DHT22;8124;48.634;8.120;2023-03-01T08:52:57;1.10;99.90
16040;DHT22;8124;48.634;8.120;2023-03-01T08:58:00;1.40;99.90
16040;DHT22;8124;48.634;8.120;2023-03-01T09:03:03;1.60;99.90
16040;DHT22;8124;48.634;8.120;2023-03-01T09:08:08;2.00;99.90
16040;DHT22;8124;48.634;8.120;2023-03-01T09:13:11;1.80;99.90
16040;DHT22;8124;48.634;8.120;2023-03-01T09:18:18;1.60;99.90
16040;DHT22;8124;48.634;8.120;2023-03-01T09:23:22;1.90;99.90
16040;DHT22;8124;48.634;8.120;2023-03-01T09:28:25;2.00;99.90
16040;DHT22;8124;48.634;8.120;2023-03-01T09:33:32;2.20;99.90
16040;DHT22;8124;48.634;8.120;2023-03-01T09:38:36;2.50;99.90
16040;DHT22;8124;48.634;8.120;2023-03-01T09:43:44;2.70;99.90
16040;DHT22;8124;48.634;8.120;2023-03-01T09:48:51;2.90;99.90
16040;DHT22;8124;48.634;8.120;2023-03-01T09:53:56;2.60;99.90
16040;DHT22;8124;48.634;8.120;2023-03-01T09:59:16;3.00;99.90
16040;DHT22;8124;48.634;8.120;2023-03-01T10:04:32;3.10;99.90
16040;DHT22;8124;48.634;8.120;2023-03-01T10:09:43;3.20;99.90
16040;DHT22;8124;48.634;8.120;2023-03-01T10:14:52;3.20;99.90
16040;DHT22;8124;48.634;8.120;2023-03-01T10:20:05;3.40;99.90
16040;DHT22;8124;48.634;8.120;2023-03-01T10:25:15;3.70;99.90
16040;DHT22;8124;48.634;8.120;2023-03-01T10:30:32;3.80;99.90
16040;DHT22;8124;48.634;8.120;2023-03-01T10:35:37;4.00;99.90
16040;DHT22;8124;48.634;8.120;2023-03-01T10:40:53;4.20;99.90
16040;DHT22;8124;48.634;8.120;2023-03-01T10:45:56;4.80;99.90
16040;DHT22;8124;48.634;8.120;2023-03-01T10:51:06;4.60;99.90
16040;DHT22;8124;48.634;8.120;2023-03-01T10:56:13;4.70;99.90
16040;DHT22;8124;48.634;8.120;2023-03-01T11:01:35;4.50;99.90
16040;DHT22;8124;48.634;8.120;2023-03-01T11:06:39;4.60;99.90
16040;DHT22;8124;48.634;8.120;2023-03-01T11:11:44;4.60;99.90
16040;DHT22;8124;48.634;8.120;2023-03-01T11:16:49;4.70;99.90
16040;DHT22;8124;48.634;8.120;2023-03-01T11:22:03;4.70;99.90
16040;DHT22;8124;48.634;8.120;2023-03-01T11:27:16;4.90;99.90
16040;DHT22;8124;48.634;8.120;2023-03-01T11:32:23;5.10;99.90
16040;DHT22;8124;48.634;8.120;2023-03-01T11:37:33;5.10;99.90
16040;DHT22;8124;48.634;8.120;2023-03-01T11:42:48;5.30;99.90
16040;DHT22;8124;48.634;8.120;2023-03-01T11:48:14;5.40;99.90
16040;DHT22;8124;48.634;8.120;2023-03-01T11:53:54;5.90;99.90
16040;DHT22;8124;48.634;8.120;2023-03-01T11:59:16;5.80;99.90
16040;DHT22;8124;48.634;8.120;2023-03-01T12:04:54;5.80;99.90
16040;DHT22;8124;48.634;8.120;2023-03-01T12:10:23;5.80;99.90
16040;DHT22;8124;48.634;8.120;2023-03-01T12:15:46;5.90;99.90
16040;DHT22;8124;48.634;8.120;2023-03-01T12:21:00;6.10;99.90
16040;DHT22;8124;48.634;8.120;2023-03-01T12:26:08;5.90;99.90
16040;DHT22;8124;48.634;8.120;2023-03-01T12:31:38;6.10;99.90
16040;DHT22;8124;48.634;8.120;2023-03-01T12:36:56;6.10;99.90
16040;DHT22;8124;48.634;8.120;2023-03-01T12:42:10;6.30;99.90
16040;DHT22;8124;48.634;8.120;2023-03-01T12:47:41;6.50;99.90
16040;DHT22;8124;48.634;8.120;2023-03-01T12:52:48;6.40;99.90
16040;DHT22;8124;48.634;8.120;2023-03-01T12:58:00;6.40;99.90
16040;DHT22;8124;48.634;8.120;2023-03-01T13:03:15;6.30;99.90
16040;DHT22;8124;48.634;8.120;2023-03-01T13:08:29;6.60;99.90
16040;DHT22;8124;48.634;8.120;2023-03-01T13:13:35;6.60;99.90
16040;DHT22;8124;48.634;8.120;2023-03-01T13:18:40;6.70;99.90
16040;DHT22;8124;48.634;8.120;2023-03-01T13:23:48;6.70;99.90
16040;DHT22;8124;48.634;8.120;2023-03-01T13:28:53;6.80;99.90
16040;DHT22;8124;48.634;8.120;2023-03-01T13:33:59;7.00;99.90
16040;DHT22;8124;48.634;8.120;2023-03-01T13:39:04;7.00;99.90
16040;DHT22;8124;48.634;8.120;2023-03-01T13:44:12;7.10;99.90
16040;DHT22;8124;48.634;8.120;2023-03-01T13:49:20;7.20;99.90
16040;DHT22;8124;48.634;8.120;2023-03-01T13:54:28;7.40;99.90
16040;DHT22;8124;48.634;8.120;2023-03-01T13:59:31;7.50;99.90
16040;DHT22;8124;48.634;8.120;2023-03-01T14:04:36;7.40;99.80
16040;DHT22;8124;48.634;8.120;2023-03-01T14:09:41;7.30;99.30
16040;DHT22;8124;48.634;8.120;2023-03-01T14:14:50;7.40;98.80
16040;DHT22;8124;48.634;8.120;2023-03-01T14:19:58;7.40;98.40
16040;DHT22;8124;48.634;8.120;2023-03-01T14:25:05;7.80;98.60
16040;DHT22;8124;48.634;8.120;2023-03-01T14:30:21;7.70;98.50
16040;DHT22;8124;48.634;8.120;2023-03-01T14:35:30;7.90;97.90
16040;DHT22;8124;48.634;8.120;2023-03-01T14:40:36;8.00;97.30
16040;DHT22;8124;48.634;8.120;2023-03-01T14:45:39;8.00;96.50
16040;DHT22;8124;48.634;8.120;2023-03-01T14:50:50;7.90;95.90
16040;DHT22;8124;48.634;8.120;2023-03-01T14:55:55;7.90;95.60
16040;DHT22;8124;48.634;8.120;2023-03-01T15:01:00;8.10;95.40
16040;DHT22;8124;48.634;8.120;2023-03-01T15:06:07;7.90;94.80
16040;DHT22;8124;48.634;8.120;2023-03-01T15:11:20;7.80;94.40
16040;DHT22;8124;48.634;8.120;2023-03-01T15:16:26;7.90;94.20
16040;DHT22;8124;48.634;8.120;2023-03-01T15:21:32;7.90;93.80
16040;DHT22;8124;48.634;8.120;2023-03-01T15:26:39;7.90;93.30
16040;DHT22;8124;48.634;8.120;2023-03-01T15:31:54;7.80;92.90
16040;DHT22;8124;48.634;8.120;2023-03-01T15:37:00;7.80;92.70
16040;DHT22;8124;48.634;8.120;2023-03-01T15:42:04;7.70;92.40
16040;DHT22;8124;48.634;8.120;2023-03-01T15:47:22;7.70;92.10
16040;DHT22;8124;48.634;8.120;2023-03-01T15:52:29;7.70;92.10
16040;DHT22;8124;48.634;8.120;2023-03-01T15:57:38;7.80;92.00
16040;DHT22;8124;48.634;8.120;2023-03-01T16:02:42;7.70;91.70
16040;DHT22;8124;48.634;8.120;2023-03-01T16:07:47;7.60;91.50
16040;DHT22;8124;48.634;8.120;2023-03-01T16:12:51;7.70;91.50
16040;DHT22;8124;48.634;8.120;2023-03-01T16:17:54;7.50;91.20
16040;DHT22;8124;48.634;8.120;2023-03-01T16:23:03;7.50;91.10
16040;DHT22;8124;48.634;8.120;2023-03-01T16:28:07;7.40;90.90
16040;DHT22;8124;48.634;8.120;2023-03-01T16:33:11;7.40;90.90
16040;DHT22;8124;48.634;8.120;2023-03-01T16:38:35;7.40;90.80
16040;DHT22;8124;48.634;8.120;2023-03-01T16:43:44;7.20;90.50
16040;DHT22;8124;48.634;8.120;2023-03-01T16:48:49;7.20;90.50
16040;DHT22;8124;48.634;8.120;2023-03-01T16:53:54;7.10;90.40
16040;DHT22;8124;48.634;8.120;2023-03-01T16:58:57;7.10;90.40
16040;DHT22;8124;48.634;8.120;2023-03-01T17:04:01;7.10;90.50
16040;DHT22;8124;48.634;8.120;2023-03-01T17:09:05;7.10;90.70
16040;DHT22;8124;48.634;8.120;2023-03-01T17:14:08;6.90;90.50
16040;DHT22;8124;48.634;8.120;2023-03-01T17:19:13;6.90;90.60
16040;DHT22;8124;48.634;8.120;2023-03-01T17:24:20;6.80;90.60
16040;DHT22;8124;48.634;8.120;2023-03-01T17:29:23;6.70;90.70
16040;DHT22;8124;48.634;8.120;2023-03-01T17:34:26;6.80;90.90
16040;DHT22;8124;48.634;8.120;2023-03-01T17:39:31;6.80;91.00
16040;DHT22;8124;48.634;8.120;2023-03-01T17:44:37;6.80;91.00
16040;DHT22;8124;48.634;8.120;2023-03-01T17:49:47;7.10;91.30
16040;DHT22;8124;48.634;8.120;2023-03-01T17:54:52;7.00;91.10
16040;DHT22;8124;48.634;8.120;2023-03-01T17:59:55;6.90;91.00
16040;DHT22;8124;48.634;8.120;2023-03-01T18:04:58;6.90;91.00
16040;DHT22;8124;48.634;8.120;2023-03-01T18:10:04;7.10;91.10
16040;DHT22;8124;48.634;8.120;2023-03-01T18:15:07;7.10;91.00
16040;DHT22;8124;48.634;8.120;2023-03-01T18:20:11;7.10;90.90
16040;DHT22;8124;48.634;8.120;2023-03-01T18:25:17;7.00;90.70
16040;DHT22;8124;48.634;8.120;2023-03-01T18:30:20;6.90;90.50
16040;DHT22;8124;48.634;8.120;2023-03-01T18:35:23;7.00;90.60
16040;DHT22;8124;48.634;8.120;2023-03-01T18:40:29;7.00;90.60
16040;DHT22;8124;48.634;8.120;2023-03-01T18:45:33;7.00;90.50
16040;DHT22;8124;48.634;8.120;2023-03-01T18:50:37;6.80;90.40
16040;DHT22;8124;48.634;8.120;2023-03-01T18:55:41;6.80;90.50
16040;DHT22;8124;48.634;8.120;2023-03-01T19:00:45;6.90;90.60
16040;DHT22;8124;48.634;8.120;2023-03-01T19:05:51;6.70;90.50
16040;DHT22;8124;48.634;8.120;2023-03-01T19:10:57;6.70;90.50
16040;DHT22;8124;48.634;8.120;2023-03-01T19:16:02;6.60;90.60
16040;DHT22;8124;48.634;8.120;2023-03-01T19:21:07;6.50;90.60
16040;DHT22;8124;48.634;8.120;2023-03-01T19:26:14;6.50;90.80
16040;DHT22;8124;48.634;8.120;2023-03-01T19:31:19;6.40;90.70
16040;DHT22;8124;48.634;8.120;2023-03-01T19:36:24;6.00;90.50
16040;DHT22;8124;48.634;8.120;2023-03-01T19:41:35;6.20;91.10
16040;DHT22;8124;48.634;8.120;2023-03-01T19:46:38;6.10;91.30
16040;DHT22;8124;48.634;8.120;2023-03-01T19:51:41;6.10;91.40
16040;DHT22;8124;48.634;8.120;2023-03-01T19:56:46;6.20;91.60
16040;DHT22;8124;48.634;8.120;2023-03-01T20:01:49;6.10;91.60
16040;DHT22;8124;48.634;8.120;2023-03-01T20:06:52;5.90;91.50
16040;DHT22;8124;48.634;8.120;2023-03-01T20:11:57;5.90;91.60
16040;DHT22;8124;48.634;8.120;2023-03-01T20:17:00;6.00;91.80
16040;DHT22;8124;48.634;8.120;2023-03-01T20:22:03;8.80;99.90
16040;DHT22;8124;48.634;8.120;2023-03-01T20:27:07;7.20;99.90
16040;DHT22;8124;48.634;8.120;2023-03-01T20:32:10;6.00;99.70
16040;DHT22;8124;48.634;8.120;2023-03-01T20:37:14;5.20;97.80
16040;DHT22;8124;48.634;8.120;2023-03-01T20:42:19;4.80;97.40
16040;DHT22;8124;48.634;8.120;2023-03-01T20:47:22;4.50;97.80
16040;DHT22;8124;48.634;8.120;2023-03-01T20:52:25;4.40;98.80
16040;DHT22;8124;48.634;8.120;2023-03-01T20:57:36;4.50;99.60
16040;DHT22;8124;48.634;8.120;2023-03-01T21:02:39;4.60;99.90
16040;DHT22;8124;48.634;8.120;2023-03-01T21:07:41;4.60;99.90
16040;DHT22;8124;48.634;8.120;2023-03-01T21:12:47;4.50;99.90
16040;DHT22;8124;48.634;8.120;2023-03-01T21:17:50;4.50;99.90
16040;DHT22;8124;48.634;8.120;2023-03-01T21:22:53;4.40;99.90
16040;DHT22;8124;48.634;8.120;2023-03-01T21:27:57;4.20;99.90
16040;DHT22;8124;48.634;8.120;2023-03-01T21:33:00;4.10;99.90
16040;DHT22;8124;48.634;8.120;2023-03-01T21:38:03;4.00;99.90
16040;DHT22;8124;48.634;8.120;2023-03-01T21:43:07;3.90;99.90
16040;DHT22;8124;48.634;8.120;2023-03-01T21:48:10;3.80;99.90
16040;DHT22;8124;48.634;8.120;2023-03-01T21:53:13;4.20;99.90
16040;DHT22;8124;48.634;8.120;2023-03-01T21:58:18;4.50;99.90
16040;DHT22;8124;48.634;8.120;2023-03-01T22:03:21;4.70;99.90
16040;DHT22;8124;48.634;8.120;2023-03-01T22:08:25;4.70;99.90
16040;DHT22;8124;48.634;8.120;2023-03-01T22:13:29;4.80;99.90
16040;DHT22;8124;48.634;8.120;2023-03-01T22:18:32;4.70;99.90
16040;DHT22;8124;48.634;8.120;2023-03-01T22:23:36;4.50;99.90
16040;DHT22;8124;48.634;8.120;2023-03-01T22:28:40;4.30;99.90
16040;DHT22;8124;48.634;8.120;2023-03-01T22:33:46;4.20;99.90
16040;DHT22;8124;48.634;8.120;2023-03-01T22:38:50;4.10;99.90
16040;DHT22;8124;48.634;8.120;2023-03-01T22:43:58;4.20;99.90
16040;DHT22;8124;48.634;8.120;2023-03-01T22:49:01;4.30;99.90
16040;DHT22;8124;48.634;8.120;2023-03-01T22:54:06;4.30;99.90
16040;DHT22;8124;48.634;8.120;2023-03-01T22:59:13;4.30;99.90
16040;DHT22;8124;48.634;8.120;2023-03-01T23:04:18;4.40;99.90
16040;DHT22;8124;48.634;8.120;2023-03-01T23:09:23;4.40;99.90
16040;DHT22;8124;48.634;8.120;2023-03-01T23:14:29;4.20;99.90
16040;DHT22;8124;48.634;8.120;2023-03-01T23:19:32;4.40;99.90
16040;DHT22;8124;48.634;8.120;2023-03-01T23:24:35;4.10;99.90
16040;DHT22;8124;48.634;8.120;2023-03-01T23:29:39;4.20;99.90
16040;DHT22;8124;48.634;8.120;2023-03-01T23:34:43;4.20;99.90
16040;DHT22;8124;48.634;8.120;2023-03-01T23:39:45;4.00;99.90
16040;DHT22;8124;48.634;8.120;2023-03-01T23:44:50;3.90;99.90
16040;DHT22;8124;48.634;8.120;2023-03-01T23:49:53;3.50;99.90
16040;DHT22;8124;48.634;8.120;2023-03-01T23:54:57;3.40;99.90
